Time;durP1;ratioP1;P1;durP2;ratioP2;P2;SDS_P1;SDS_P2;PMS_P1;PMS_P2;Temp;Humidity;BMP_temperature;BMP_pressure;BME280_temperature;BME280_humidity;BME280_pressure;Samples;Min_cycle;Max_cycle;Signal;HPM_P1;HPM_P2
2022/04/21 00:02:02;;;;;;;10.40;8.40;;;;;;;6.52;82.53;98712.81;1732409;82;21060;-72
2022/04/21 00:04:28;;;;;;;10.72;7.92;;;;;;;6.55;82.70;98709.47;1734292;82;21765;-70
2022/04/21 00:07:02;;;;;;;11.83;8.65;;;;;;;6.58;82.56;98709.62;1714678;82;21128;-73
2022/04/21 00:09:29;;;;;;;11.65;8.53;;;;;;;6.57;82.48;98703.92;1729653;81;21048;-71
2022/04/21 00:11:57;;;;;;;11.48;7.37;;;;;;;6.58;82.51;98700.63;1702317;84;21053;-73
2022/04/21 00:14:26;;;;;;;12.45;8.25;;;;;;;6.56;82.51;98696.84;1706225;84;21109;-72
2022/04/21 00:16:56;;;;;;;13.62;8.08;;;;;;;6.56;82.63;98697.39;1707556;82;21180;-73
2022/04/21 00:19:24;;;;;;;15.43;8.65;;;;;;;6.56;82.60;98706.42;1706188;84;20990;-70
2022/04/21 00:24:38;;;;;;;11.75;8.30;;;;;;;6.54;82.84;98700.45;1705919;84;21600;-73
2022/04/21 00:27:21;;;;;;;13.32;7.65;;;;;;;6.56;82.85;98700.13;1676244;84;21031;-73
2022/04/21 00:29:49;;;;;;;10.75;7.95;;;;;;;6.56;82.63;98703.69;1704853;84;21121;-71
2022/04/21 00:32:21;;;;;;;9.40;8.00;;;;;;;6.48;82.65;98699.52;1706307;84;21077;-72
2022/04/21 00:34:50;;;;;;;11.20;8.60;;;;;;;6.47;82.96;98708.83;1706436;83;21082;-73
2022/04/21 00:37:19;;;;;;;12.25;9.45;;;;;;;6.48;83.08;98703.08;1706463;84;21093;-71
2022/04/21 00:39:50;;;;;;;12.85;9.73;;;;;;;6.51;83.23;98700.26;1706176;84;21074;-73
2022/04/21 00:42:19;;;;;;;11.40;8.18;;;;;;;6.54;83.30;98703.19;1706410;84;21248;-71
2022/04/21 00:44:46;;;;;;;11.22;8.23;;;;;;;6.56;83.26;98700.95;1706323;84;21980;-72
2022/04/21 00:47:15;;;;;;;11.95;8.78;;;;;;;6.48;83.08;98696.23;1706254;84;21109;-73
2022/04/21 00:49:45;;;;;;;12.28;8.78;;;;;;;6.48;83.20;98696.23;1706710;84;21104;-72
2022/04/21 00:52:15;;;;;;;10.88;8.65;;;;;;;6.51;83.33;98696.97;1706542;82;21022;-72
2022/04/21 00:54:42;;;;;;;11.38;9.30;;;;;;;6.53;83.22;98692.55;1705995;84;21242;-71
2022/04/21 00:57:15;;;;;;;11.48;8.75;;;;;;;6.51;83.27;98691.50;1705707;84;21101;-72
2022/04/21 00:59:44;;;;;;;12.80;9.10;;;;;;;6.53;83.16;98694.73;1706357;84;21073;-70
2022/04/21 01:04:56;;;;;;;11.93;9.40;;;;;;;6.53;83.27;98687.89;1706351;83;21573;-73
2022/04/21 01:07:26;;;;;;;12.75;8.68;;;;;;;6.51;83.31;98676.44;1691397;84;21070;-72
2022/04/21 01:09:56;;;;;;;11.18;8.95;;;;;;;6.50;83.21;98681.65;1706088;83;22448;-73
2022/04/21 01:12:23;;;;;;;20.75;9.73;;;;;;;6.50;83.18;98676.17;1703321;84;21084;-73
2022/04/21 01:14:53;;;;;;;12.37;9.10;;;;;;;6.51;83.28;98676.99;1706325;84;21049;-75
2022/04/21 01:17:41;;;;;;;11.25;9.05;;;;;;;6.51;83.16;98671.52;1684815;83;21010;-70
2022/04/21 01:20:09;;;;;;;12.23;8.83;;;;;;;6.50;83.25;98669.33;1704663;84;21494;-73
2022/04/21 01:22:37;;;;;;;10.65;8.60;;;;;;;6.52;83.19;98666.28;1709798;83;21057;-71
2022/04/21 01:25:07;;;;;;;12.50;8.73;;;;;;;6.50;83.22;98665.23;1706171;84;21045;-71
2022/04/21 01:27:35;;;;;;;15.23;9.55;;;;;;;6.48;83.16;98672.97;1702314;84;21503;-72
2022/04/21 01:30:07;;;;;;;15.58;9.80;;;;;;;6.46;83.15;98672.47;1703480;84;21021;-74
2022/04/21 01:32:35;;;;;;;12.37;9.35;;;;;;;6.45;83.30;98677.13;1706472;84;21721;-71
2022/04/21 01:35:05;;;;;;;15.95;10.03;;;;;;;6.43;83.21;98666.26;1704682;83;21086;-71
2022/04/21 01:43:06;;;;;;;12.45;9.38;;;;;;;6.28;83.59;98665.51;1703470;84;21570;-72
2022/04/21 01:45:36;;;;;;;16.35;9.98;;;;;;;6.32;83.68;98661.59;1706297;84;21003;-73
2022/04/21 01:48:06;;;;;;;11.20;9.48;;;;;;;6.30;83.58;98663.27;1708241;82;21475;-73
2022/04/21 01:50:35;;;;;;;12.05;9.55;;;;;;;6.29;83.66;98657.56;1706425;84;21586;-74
2022/04/21 01:53:03;;;;;;;19.65;10.48;;;;;;;6.33;83.85;98663.20;1709853;83;21109;-75
2022/04/21 01:55:31;;;;;;;14.58;10.20;;;;;;;6.37;83.84;98655.17;1706238;84;21606;-73
2022/04/21 01:57:59;;;;;;;15.83;10.00;;;;;;;6.37;83.68;98655.98;1706041;84;21523;-72
2022/04/21 02:00:28;;;;;;;14.45;10.05;;;;;;;6.40;83.75;98650.44;1706441;84;21041;-71
2022/04/21 02:03:00;;;;;;;12.45;9.63;;;;;;;6.44;83.80;98653.63;1706193;84;21201;-71
2022/04/21 02:05:27;;;;;;;14.85;9.88;;;;;;;6.47;83.78;98655.47;1704599;83;21097;-74
2022/04/21 02:07:54;;;;;;;14.60;9.48;;;;;;;6.44;83.69;98656.36;1709970;83;21077;-74
2022/04/21 02:10:22;;;;;;;14.05;8.80;;;;;;;6.42;83.81;98656.41;1707965;83;21592;-73
2022/04/21 02:12:50;;;;;;;12.53;8.63;;;;;;;6.44;83.66;98655.55;1714091;83;21581;-73
2022/04/21 02:15:18;;;;;;;13.13;9.45;;;;;;;6.42;83.61;98656.41;1713935;82;21026;-75
2022/04/21 02:17:45;;;;;;;14.30;10.03;;;;;;;6.41;83.64;98643.31;1717873;83;21085;-73
2022/04/21 02:20:15;;;;;;;14.28;10.05;;;;;;;6.43;83.69;98644.36;1714423;83;21056;-72
2022/04/21 02:22:44;;;;;;;15.43;9.88;;;;;;;6.47;83.75;98648.62;1714611;83;21640;-71
2022/04/21 02:25:13;;;;;;;12.58;9.30;;;;;;;6.48;83.86;98647.52;1714115;83;21143;-74
2022/04/21 02:27:46;;;;;;;17.02;10.60;;;;;;;6.45;83.68;98650.30;1731087;81;21120;-74
2022/04/21 02:30:15;;;;;;;14.38;10.72;;;;;;;6.46;83.85;98647.84;1714169;83;21064;-72
2022/04/21 02:32:42;;;;;;;13.38;9.73;;;;;;;6.49;83.87;98643.65;1710384;83;21065;-73
2022/04/21 02:35:10;;;;;;;12.28;9.20;;;;;;;6.50;83.82;98643.33;1713993;83;21979;-73
2022/04/21 02:37:46;;;;;;;12.68;9.68;;;;;;;6.51;83.69;98647.70;1717299;83;21029;-74
2022/04/21 02:40:15;;;;;;;14.90;10.38;;;;;;;6.46;83.51;98640.99;1712506;83;21037;-71
2022/04/21 02:42:47;;;;;;;16.32;11.38;;;;;;;6.45;83.62;98647.57;1709961;82;21101;-74
2022/04/21 02:45:28;;;;;;;14.00;10.55;;;;;;;6.45;83.64;98647.02;1707463;83;21557;-73
2022/04/21 02:47:58;;;;;;;15.15;11.18;;;;;;;6.43;83.55;98645.73;1714271;83;21208;-74
2022/04/21 02:50:41;;;;;;;13.50;11.20;;;;;;;6.37;83.60;98641.49;1727043;82;21069;-73
2022/04/21 02:53:09;;;;;;;16.70;10.95;;;;;;;6.33;83.79;98641.30;1709480;82;21037;-71
2022/04/21 02:58:25;;;;;;;17.32;11.18;;;;;;;6.27;83.81;98642.02;1698155;83;21105;-72
2022/04/21 03:00:55;;;;;;;16.05;11.80;;;;;;;6.27;83.82;98645.30;1694364;83;21044;-71
2022/04/21 03:03:24;;;;;;;17.30;12.33;;;;;;;6.24;83.83;98644.02;1714291;83;21078;-73
2022/04/21 03:05:56;;;;;;;16.85;11.40;;;;;;;6.23;83.84;98643.75;1721129;82;21006;-74
2022/04/21 03:08:23;;;;;;;15.68;11.22;;;;;;;6.21;83.96;98648.17;1715081;83;21034;-74
2022/04/21 03:10:49;;;;;;;19.52;12.47;;;;;;;6.17;83.97;98648.56;1711921;83;21025;-73
2022/04/21 03:13:17;;;;;;;16.77;12.28;;;;;;;6.14;84.20;98640.95;1680148;84;21304;-71
2022/04/21 03:15:45;;;;;;;16.65;11.85;;;;;;;6.13;84.43;98641.27;1703089;83;20950;-72
2022/04/21 03:18:12;;;;;;;18.65;12.95;;;;;;;6.07;84.37;98650.96;1707704;83;21610;-73
2022/04/21 03:26:17;;;;;;;16.52;12.35;;;;;;;6.15;85.02;98645.88;1704058;83;22194;-74
2022/04/21 03:28:39;;;;;;;18.05;11.90;;;;;;;6.23;85.11;98643.75;1682273;84;21565;-73
2022/04/21 03:31:06;;;;;;;17.52;12.28;;;;;;;6.28;85.00;98649.09;1706328;84;21089;-73
2022/04/21 03:33:34;;;;;;;15.65;11.75;;;;;;;6.30;84.80;98644.67;1706279;82;21015;-72
2022/04/21 03:36:05;;;;;;;14.25;11.28;;;;;;;6.28;84.85;98647.72;1710007;83;21585;-72
2022/04/21 03:38:38;;;;;;;14.13;11.25;;;;;;;6.25;84.74;98642.06;1706506;83;21050;-72
2022/04/21 03:41:05;;;;;;;20.55;11.80;;;;;;;6.24;84.90;98644.02;1702235;84;21053;-73
2022/04/21 03:43:35;;;;;;;16.85;13.00;;;;;;;6.24;84.87;98641.83;1700897;82;21053;-72
2022/04/21 03:46:09;;;;;;;14.18;11.80;;;;;;;6.25;85.11;98646.98;1680172;84;21108;-73
2022/04/21 03:48:36;;;;;;;14.28;11.90;;;;;;;6.28;85.19;98641.44;1705843;83;21026;-73
2022/04/21 03:51:04;;;;;;;16.25;12.60;;;;;;;6.29;85.05;98646.63;1704896;83;21074;-72
2022/04/21 03:53:30;;;;;;;20.80;12.55;;;;;;;6.27;85.08;98644.75;1718519;82;21085;-72
2022/04/21 03:55:59;;;;;;;15.60;12.85;;;;;;;6.30;85.12;98641.94;1702395;84;21775;-72
2022/04/21 03:58:27;;;;;;;16.73;12.40;;;;;;;6.28;85.17;98643.63;1706106;84;21505;-72
2022/04/21 04:00:54;;;;;;;15.85;12.63;;;;;;;6.26;85.02;98643.12;1706299;84;21552;-71
2022/04/21 04:03:22;;;;;;;18.50;13.40;;;;;;;6.23;85.11;98649.80;1707812;83;21065;-73
2022/04/21 04:05:56;;;;;;;18.02;13.50;;;;;;;6.24;85.16;98650.04;1707499;83;21121;-71
2022/04/21 04:11:20;;;;;;;15.35;12.65;;;;;;;6.25;85.21;98648.91;1702020;82;21041;-72
2022/04/21 04:14:05;;;;;;;17.40;11.75;;;;;;;6.27;85.32;98649.41;1714917;83;21505;-73
2022/04/21 04:16:39;;;;;;;15.95;12.78;;;;;;;6.29;85.40;98648.55;1724125;82;21545;-71
2022/04/21 04:19:13;;;;;;;19.17;12.78;;;;;;;6.33;85.60;98650.33;1699742;83;21037;-73
2022/04/21 04:21:42;;;;;;;18.73;13.18;;;;;;;6.40;85.68;98651.80;1716839;82;21076;-74
2022/04/21 04:24:19;;;;;;;18.73;13.38;;;;;;;6.43;85.67;98653.94;1710976;83;21124;-74
2022/04/21 04:26:48;;;;;;;16.60;12.63;;;;;;;6.48;85.57;98654.36;1715164;82;22153;-72
2022/04/21 04:29:22;;;;;;;21.70;14.15;;;;;;;6.51;85.45;98654.55;1717178;82;21289;-72
2022/04/21 04:31:42;;;;;;;16.35;13.45;;;;;;;6.55;85.34;98656.88;1713515;82;21522;-74
2022/04/21 04:34:12;;;;;;;15.48;12.00;;;;;;;6.53;84.95;98659.15;1716286;83;21014;-74
2022/04/21 04:36:39;;;;;;;19.55;13.25;;;;;;;6.47;84.81;98656.83;1718548;82;20993;-73
2022/04/21 04:39:07;;;;;;;18.67;12.47;;;;;;;6.44;84.76;98665.13;1712665;83;21601;-73
2022/04/21 04:44:23;;;;;;;17.07;12.35;;;;;;;6.41;84.85;98671.23;1715715;83;21639;-73
2022/04/21 04:46:50;;;;;;;16.80;12.33;;;;;;;6.39;84.76;98663.88;1659758;83;21116;-73
2022/04/21 04:49:19;;;;;;;16.62;12.00;;;;;;;6.38;84.70;98663.07;1716044;83;21159;-73
2022/04/21 04:51:47;;;;;;;16.62;12.23;;;;;;;6.35;84.69;98662.91;1692428;83;21061;-73
2022/04/21 04:54:16;;;;;;;21.80;12.68;;;;;;;6.33;84.73;98665.38;1716398;82;21080;-72
2022/04/21 04:56:50;;;;;;;18.95;13.50;;;;;;;6.32;84.62;98665.14;1716529;83;21009;-71
2022/04/21 04:59:37;;;;;;;17.00;12.15;;;;;;;6.29;84.63;98667.14;1715715;83;21100;-73
2022/04/21 05:02:11;;;;;;;19.15;13.18;;;;;;;6.29;84.63;98663.59;1714147;83;21411;-73
2022/04/21 05:04:38;;;;;;;16.32;12.37;;;;;;;6.29;84.51;98670.43;1718787;82;21545;-73
2022/04/21 05:07:06;;;;;;;18.45;12.90;;;;;;;6.28;84.27;98670.98;1716390;83;21151;-71
2022/04/21 05:09:34;;;;;;;17.20;12.43;;;;;;;6.28;84.39;98675.64;1681752;83;21021;-74
2022/04/21 05:12:01;;;;;;;18.23;11.95;;;;;;;6.30;84.55;98676.95;1710931;82;21088;-71
2022/04/21 05:14:30;;;;;;;15.40;12.37;;;;;;;6.35;84.44;98679.33;1702872;84;21026;-73
2022/04/21 05:16:58;;;;;;;17.85;12.80;;;;;;;6.36;84.41;98679.02;1707894;82;21530;-74
2022/04/21 05:19:26;;;;;;;20.52;12.25;;;;;;;6.37;84.28;98672.41;1708926;82;21544;-72
2022/04/21 05:21:54;;;;;;;18.57;11.88;;;;;;;6.38;83.95;98674.59;1682309;84;21587;-73
2022/04/21 05:24:20;;;;;;;15.78;12.23;;;;;;;6.31;84.08;98674.45;1706223;82;21486;-72
2022/04/21 05:26:49;;;;;;;14.58;10.23;;;;;;;6.36;84.18;98672.17;1702573;84;21097;-73
2022/04/21 05:32:07;;;;;;;15.48;11.80;;;;;;;6.44;84.27;98672.78;1706443;82;21061;-72
2022/04/21 05:34:35;;;;;;;16.70;11.85;;;;;;;6.54;84.39;98678.55;1710114;83;21541;-73
2022/04/21 05:37:05;;;;;;;16.27;10.88;;;;;;;6.59;84.11;98673.49;1706433;84;21038;-72
2022/04/21 05:39:34;;;;;;;20.62;11.53;;;;;;;6.63;84.14;98678.59;1704941;84;21070;-74
2022/04/21 05:42:06;;;;;;;15.00;12.00;;;;;;;6.67;84.00;98685.62;1706159;84;21042;-72
2022/04/21 05:44:36;;;;;;;17.30;11.25;;;;;;;6.67;84.05;98676.83;1703426;84;21194;-72
2022/04/21 05:47:10;;;;;;;15.43;11.70;;;;;;;6.70;83.74;98679.52;1707013;83;20990;-73
2022/04/21 05:49:37;;;;;;;20.82;13.20;;;;;;;6.69;83.46;98680.63;1692516;83;21182;-74
2022/04/21 05:52:08;;;;;;;18.07;12.53;;;;;;;6.68;83.36;98677.65;1713244;83;21078;-72
2022/04/21 05:54:35;;;;;;;19.80;11.68;;;;;;;6.67;83.19;98678.20;1706292;84;21018;-72
2022/04/21 05:57:03;;;;;;;17.67;11.22;;;;;;;6.67;83.09;98682.31;1708699;82;21501;-73
2022/04/21 05:59:30;;;;;;;14.58;11.00;;;;;;;6.66;82.97;98679.34;1706991;82;21104;-73
2022/04/21 06:02:11;;;;;;;17.55;10.32;;;;;;;6.67;82.95;98685.05;1709504;82;21069;-75
2022/04/21 06:04:44;;;;;;;14.10;10.68;;;;;;;6.63;82.78;98679.97;1679107;82;21065;-74
2022/04/21 06:07:14;;;;;;;16.93;12.33;;;;;;;6.64;82.93;98686.23;1711282;82;21073;-73
2022/04/21 06:09:43;;;;;;;16.23;11.08;;;;;;;6.67;83.05;98681.52;1709599;82;21108;-72
2022/04/21 06:12:11;;;;;;;12.68;10.30;;;;;;;6.73;82.94;98691.20;1696184;82;21047;-73
2022/04/21 06:14:42;;;;;;;15.98;11.15;;;;;;;6.76;82.93;98690.56;1684033;83;21039;-72
2022/04/21 06:17:10;;;;;;;15.23;11.18;;;;;;;6.80;82.62;98689.38;1686860;83;21082;-73
2022/04/21 06:19:42;;;;;;;17.35;11.65;;;;;;;6.75;82.51;98684.86;1687406;83;21048;-72
2022/04/21 06:22:10;;;;;;;15.43;10.60;;;;;;;6.76;82.54;98693.31;1686262;83;21575;-73
2022/04/21 06:24:38;;;;;;;14.05;10.48;;;;;;;6.78;82.53;98688.88;1686517;83;21218;-72
2022/04/21 06:27:07;;;;;;;18.92;12.05;;;;;;;6.82;82.41;98696.73;1683835;83;21029;-73
2022/04/21 06:29:37;;;;;;;15.88;12.58;;;;;;;6.82;82.62;98694.78;1682523;83;21072;-72
2022/04/21 06:32:06;;;;;;;14.68;11.35;;;;;;;6.85;82.47;98695.28;1678035;84;21083;-72
2022/04/21 06:34:43;;;;;;;18.98;12.75;;;;;;;6.84;82.53;98691.72;1685821;83;21066;-72
2022/04/21 06:37:10;;;;;;;17.92;12.23;;;;;;;6.88;82.46;98698.75;1683297;83;21532;-72
2022/04/21 06:39:41;;;;;;;20.25;13.62;;;;;;;6.87;82.42;98699.88;1682707;83;21032;-71
2022/04/21 06:42:08;;;;;;;16.35;12.95;;;;;;;6.87;82.52;98699.88;1687217;82;21095;-72
2022/04/21 06:50:37;;;;;;;17.95;12.95;;;;;;;6.90;82.62;98706.09;1684457;83;21068;-71
2022/04/21 06:53:06;;;;;;;20.05;14.58;;;;;;;6.95;82.71;98710.06;1689910;83;21034;-72
2022/04/21 06:55:40;;;;;;;22.37;15.28;;;;;;;7.02;82.71;98708.23;1682215;83;21099;-74
2022/04/21 06:58:11;;;;;;;23.50;16.02;;;;;;;7.09;82.69;98714.63;1681419;83;21063;-75
2022/04/21 07:00:38;;;;;;;23.80;16.23;;;;;;;7.12;82.42;98711.25;1682025;83;21233;-73
2022/04/21 07:03:08;;;;;;;25.08;15.40;;;;;;;7.13;82.34;98705.45;1681222;83;21520;-72
2022/04/21 07:05:35;;;;;;;21.85;15.03;;;;;;;7.20;82.26;98709.11;1684270;83;21103;-72
2022/04/21 07:08:03;;;;;;;22.82;15.68;;;;;;;7.22;82.13;98712.34;1695551;83;21000;-72
2022/04/21 07:10:33;;;;;;;28.60;16.30;;;;;;;7.28;82.06;98715.17;1688281;83;21610;-73
2022/04/21 07:13:10;;;;;;;25.60;15.13;;;;;;;7.33;82.06;98717.53;1695564;82;21615;-73
2022/04/21 07:15:44;;;;;;;25.70;16.90;;;;;;;7.39;81.99;98716.25;1700388;82;21611;-74
2022/04/21 07:18:09;;;;;;;29.63;16.02;;;;;;;7.45;81.78;98716.38;1700353;82;21083;-72
2022/04/21 07:20:42;;;;;;;23.12;14.60;;;;;;;7.46;81.48;98716.60;1693602;83;20989;-72
2022/04/21 07:23:11;;;;;;;;;;;;;;;7.46;81.29;98716.60;1697697;82;21068;-73
2022/04/21 07:25:42;;;;;;;28.85;16.17;;;;;;;7.46;81.48;98717.16;1682260;83;20166;-74
2022/04/21 07:28:10;;;;;;;24.40;15.65;;;;;;;7.50;81.40;98708.00;1692000;83;21536;-74
2022/04/21 07:30:38;;;;;;;23.52;16.10;;;;;;;7.51;81.57;98708.23;1684811;83;21449;-73
2022/04/21 07:33:04;;;;;;;25.80;17.23;;;;;;;7.60;81.57;98711.00;1679036;84;21062;-73
2022/04/21 07:35:34;;;;;;;26.95;18.15;;;;;;;7.64;81.36;98709.21;1687280;83;21027;-73
2022/04/21 07:38:06;;;;;;;26.25;17.85;;;;;;;7.69;81.24;98707.45;1690482;83;21049;-74
2022/04/21 07:40:35;;;;;;;29.52;18.50;;;;;;;7.75;81.19;98706.16;1652166;85;21091;-72
2022/04/21 07:43:08;;;;;;;23.30;16.87;;;;;;;7.81;81.16;98706.27;1684981;85;21021;-72
2022/04/21 07:45:33;;;;;;;28.32;19.02;;;;;;;7.87;80.91;98713.20;1681884;84;21024;-73
2022/04/21 07:48:04;;;;;;;27.17;17.48;;;;;;;7.96;80.95;98715.14;1684387;85;21516;-72
2022/04/21 07:50:32;;;;;;;28.10;17.95;;;;;;;7.99;80.71;98722.16;1683430;83;21737;-73
2022/04/21 07:53:13;;;;;;;23.38;16.65;;;;;;;8.00;80.59;98719.66;1686293;83;21102;-72
2022/04/21 07:55:46;;;;;;;30.95;18.52;;;;;;;8.00;80.44;98732.00;1682868;85;21067;-74
2022/04/21 07:58:16;;;;;;;28.57;18.25;;;;;;;8.01;80.35;98728.14;1680713;85;21611;-72
2022/04/21 08:00:44;;;;;;;27.50;18.00;;;;;;;8.06;80.26;98731.84;1683344;85;21575;-72
2022/04/21 08:03:18;;;;;;;27.02;19.20;;;;;;;8.10;79.97;98739.69;1682571;83;21313;-72
2022/04/21 08:05:45;;;;;;;32.05;19.65;;;;;;;8.13;79.93;98732.98;1683941;83;21037;-73
2022/04/21 08:08:15;;;;;;;26.57;17.55;;;;;;;8.15;79.69;98736.20;1660145;83;21119;-73
2022/04/21 08:10:43;;;;;;;28.25;18.52;;;;;;;8.13;79.58;98734.91;1685343;83;21040;-73
2022/04/21 08:13:19;;;;;;;25.17;17.20;;;;;;;8.15;79.31;98737.56;1700731;81;21442;-73
2022/04/21 08:15:50;;;;;;;26.02;17.40;;;;;;;8.13;79.30;98739.03;1714617;82;21100;-74
2022/04/21 08:18:19;;;;;;;26.15;17.40;;;;;;;8.15;79.12;98743.64;1713510;82;21049;-73
2022/04/21 08:20:48;;;;;;;25.62;16.65;;;;;;;8.14;78.80;98750.23;1719867;81;21271;-73
2022/04/21 08:23:17;;;;;;;24.70;16.73;;;;;;;8.13;78.79;98750.02;1713183;82;21534;-74
2022/04/21 08:34:04;;;;;;;28.32;18.27;;;;;;;8.12;78.51;98758.02;1712985;82;21056;-73
2022/04/21 08:36:34;;;;;;;27.00;17.40;;;;;;;8.11;78.24;98760.49;1713053;82;21537;-74
2022/04/21 08:39:02;;;;;;;28.80;19.00;;;;;;;8.15;78.37;98766.37;1715693;82;21029;-72
2022/04/21 08:41:34;;;;;;;28.80;19.02;;;;;;;8.20;78.29;98763.25;1720431;82;21044;-73
2022/04/21 08:44:04;;;;;;;25.60;19.07;;;;;;;8.20;78.07;98764.06;1714995;82;21045;-72
2022/04/21 08:46:32;;;;;;;24.35;16.73;;;;;;;8.22;77.99;98771.39;1716760;82;21044;-73
2022/04/21 08:49:00;;;;;;;28.52;20.77;;;;;;;8.24;77.89;98769.13;1692497;82;21031;-74
2022/04/21 08:51:33;;;;;;;25.37;17.27;;;;;;;8.28;77.80;98773.41;1708055;82;21057;-72
2022/04/21 08:54:03;;;;;;;28.55;19.67;;;;;;;8.29;77.73;98773.65;1712507;82;21231;-73
2022/04/21 08:56:31;;;;;;;27.40;19.37;;;;;;;8.30;77.48;98769.79;1716589;82;21057;-74
2022/04/21 08:58:57;;;;;;;27.22;19.23;;;;;;;8.27;77.37;98776.72;1712107;82;21088;-74
2022/04/21 09:01:26;;;;;;;28.05;18.23;;;;;;;8.27;77.54;98771.81;1720571;82;21061;-72
2022/04/21 09:03:54;;;;;;;26.75;17.57;;;;;;;8.33;77.61;98779.30;1721630;82;21073;-72
2022/04/21 09:06:29;;;;;;;26.52;17.62;;;;;;;8.39;77.56;98775.28;1712456;82;21053;-74
2022/04/21 09:09:16;;;;;;;25.82;16.00;;;;;;;8.47;77.44;98779.14;1717146;82;21518;-73
2022/04/21 09:11:55;;;;;;;22.48;15.72;;;;;;;8.54;77.29;98780.84;1712461;82;21129;-72
2022/04/21 09:14:29;;;;;;;24.82;15.63;;;;;;;8.61;76.92;98776.26;1714806;81;21009;-73
2022/04/21 09:17:05;;;;;;;21.23;15.58;;;;;;;8.57;76.54;98778.84;1711769;82;21008;-70
2022/04/21 09:19:33;;;;;;;22.35;15.72;;;;;;;8.53;76.52;98786.08;1707409;82;21057;-72
2022/04/21 09:22:00;;;;;;;22.85;16.02;;;;;;;8.54;76.61;98787.70;1715485;82;21095;-72
2022/04/21 09:24:34;;;;;;;28.52;18.57;;;;;;;8.59;76.59;98786.20;1716383;82;21071;-75
2022/04/21 09:27:01;;;;;;;24.52;17.35;;;;;;;8.64;76.42;98784.66;1687425;82;21710;-73
2022/04/21 09:29:30;;;;;;;22.07;16.52;;;;;;;8.71;76.32;98791.59;1701108;82;21020;-72
2022/04/21 09:32:03;;;;;;;25.80;17.42;;;;;;;8.71;75.98;98791.03;1721061;82;21196;-73
2022/04/21 09:34:31;;;;;;;24.82;17.27;;;;;;;8.67;75.74;98796.92;1725357;82;21024;-71
2022/04/21 09:37:04;;;;;;;22.25;16.17;;;;;;;8.63;75.70;98797.34;1712262;82;21118;-73
2022/04/21 09:39:30;;;;;;;25.62;16.70;;;;;;;8.62;75.68;98791.59;1713584;82;21063;-74
2022/04/21 09:41:58;;;;;;;27.60;17.50;;;;;;;8.62;75.78;98794.34;1717281;82;21051;-75
2022/04/21 09:47:33;;;;;;;29.57;18.63;;;;;;;8.65;75.73;98795.06;1719615;82;21090;-73
2022/04/21 09:50:12;;;;;;;32.33;17.30;;;;;;;8.64;75.49;98798.95;1717223;82;21648;-72
2022/04/21 09:52:49;;;;;;;25.97;16.37;;;;;;;8.56;75.56;98799.21;1717873;82;21087;-73
2022/04/21 09:55:29;;;;;;;26.48;15.38;;;;;;;8.55;75.53;98805.00;1715832;82;21008;-75
2022/04/21 09:58:06;;;;;;;31.62;16.17;;;;;;;8.48;75.78;98803.52;1717538;82;21117;-72
2022/04/21 10:00:37;;;;;;;28.25;16.70;;;;;;;8.49;75.81;98814.77;1710859;82;21052;-73
2022/04/21 10:03:05;;;;;;;24.90;14.75;;;;;;;8.48;75.85;98812.31;1720690;82;21064;-72
2022/04/21 10:05:37;;;;;;;29.40;15.38;;;;;;;8.44;75.83;98813.55;1714396;82;21044;-72
2022/04/21 10:08:07;;;;;;;27.02;14.07;;;;;;;8.44;76.02;98820.42;1715983;82;21120;-73
2022/04/21 10:10:37;;;;;;;23.85;12.82;;;;;;;8.45;76.04;98814.34;1716076;82;21083;-73
2022/04/21 10:13:08;;;;;;;23.77;13.43;;;;;;;8.42;75.98;98817.74;1712884;82;20999;-73
2022/04/21 10:15:39;;;;;;;16.27;11.88;;;;;;;8.44;76.19;98814.93;1704183;82;21649;-73
2022/04/21 10:18:16;;;;;;;21.02;13.38;;;;;;;8.51;76.34;98817.97;1708124;82;21092;-72
2022/04/21 10:20:45;;;;;;;122.82;63.35;;;;;;;8.58;76.25;98818.11;1711502;82;21077;-73
2022/04/21 10:23:16;;;;;;;35.63;21.12;;;;;;;8.65;76.24;98818.41;1713873;82;21007;-72
2022/04/21 10:25:46;;;;;;;36.30;23.42;;;;;;;8.72;76.19;98818.73;1710134;82;21097;-72
2022/04/21 10:28:42;;;;;;;23.77;15.60;;;;;;;8.80;76.01;98828.11;1687444;82;21092;-74
2022/04/21 10:31:35;;;;;;;24.87;14.93;;;;;;;8.84;75.73;98830.98;1651011;84;22285;-73
2022/04/21 10:34:07;;;;;;;19.50;13.25;;;;;;;8.91;75.54;98838.73;1710567;82;21023;-75
2022/04/21 10:36:41;;;;;;;22.75;15.25;;;;;;;9.02;75.82;98834.53;1704253;82;21231;-72
2022/04/21 10:39:23;;;;;;;20.82;14.63;;;;;;;9.11;75.38;98838.64;1704243;82;21096;-71
2022/04/21 10:42:17;;;;;;;22.50;14.63;;;;;;;9.13;75.41;98837.17;1716348;80;21066;-73
2022/04/21 10:44:50;;;;;;;21.10;12.63;;;;;;;9.25;75.29;98841.17;1709656;82;21503;-73
2022/04/21 10:47:38;;;;;;;19.25;11.60;;;;;;;9.29;74.78;98846.27;1706009;82;21574;-73
2022/04/21 10:50:19;;;;;;;24.85;16.73;;;;;;;9.30;74.37;98848.45;1711409;81;21594;-72
2022/04/21 10:58:42;;;;;;;15.48;11.45;;;;;;;9.18;73.30;98854.05;1704924;82;21524;-72
2022/04/21 11:01:27;;;;;;;13.28;9.98;;;;;;;9.06;73.14;98849.81;1701653;84;21034;-73
2022/04/21 11:04:19;;;;;;;16.75;8.58;;;;;;;8.97;73.26;98860.22;1683157;84;21057;-73
2022/04/21 11:06:56;;;;;;;12.07;9.03;;;;;;;8.93;73.33;98852.96;1701721;83;21525;-73
2022/04/21 11:09:50;;;;;;;13.22;10.35;;;;;;;8.86;73.32;98857.58;1677802;82;33888;-72
2022/04/21 11:12:42;;;;;;;12.58;10.13;;;;;;;8.79;73.53;98855.88;1669589;82;21041;-73
2022/04/21 11:15:41;;;;;;;17.37;10.05;;;;;;;8.77;73.80;98852.08;1710081;82;21700;-76
2022/04/21 11:18:17;;;;;;;18.25;11.15;;;;;;;8.78;73.97;98864.70;1712403;80;21904;-74
2022/04/21 11:20:47;;;;;;;14.28;10.38;;;;;;;8.77;74.09;98869.94;1713394;82;21037;-75
2022/04/21 11:23:38;;;;;;;19.20;14.03;;;;;;;8.74;74.04;98867.28;1703016;82;21503;-73
2022/04/21 11:26:09;;;;;;;17.90;12.53;;;;;;;8.70;74.20;98866.30;1711269;82;21038;-72
2022/04/21 11:28:36;;;;;;;15.80;12.03;;;;;;;8.69;74.30;98866.63;1706214;82;21065;-73
2022/04/21 11:31:03;;;;;;;17.42;13.10;;;;;;;8.67;74.64;98864.20;1701856;82;21542;-73
2022/04/21 11:33:35;;;;;;;15.20;11.10;;;;;;;8.75;74.98;98871.64;1710298;82;21424;-74
2022/04/21 11:36:08;;;;;;;12.93;9.95;;;;;;;8.86;75.02;98868.56;1705816;83;22892;-73
2022/04/21 11:38:40;;;;;;;13.65;10.35;;;;;;;8.94;74.96;98866.95;1707130;82;21033;-72
2022/04/21 11:41:10;;;;;;;16.57;10.93;;;;;;;9.03;74.90;98867.73;1706308;84;21609;-73
2022/04/21 11:43:40;;;;;;;15.05;11.43;;;;;;;9.10;74.63;98868.62;1705256;82;21568;-73
2022/04/21 11:46:11;;;;;;;17.90;10.75;;;;;;;9.10;74.20;98870.81;1704864;84;21587;-73
2022/04/21 11:48:40;;;;;;;15.72;10.18;;;;;;;9.06;73.66;98870.42;1701021;84;21042;-74
2022/04/21 11:51:10;;;;;;;15.63;10.55;;;;;;;8.95;73.45;98868.56;1693744;83;21068;-75
2022/04/21 11:53:43;;;;;;;12.80;10.28;;;;;;;8.86;73.48;98879.00;1682134;83;21085;-73
2022/04/21 11:56:12;;;;;;;10.93;8.85;;;;;;;8.78;73.39;98869.38;1705206;84;22064;-71
2022/04/21 11:58:44;;;;;;;10.72;8.63;;;;;;;8.72;73.43;98868.72;1705053;84;21041;-72
2022/04/21 12:07:08;;;;;;;11.12;7.62;;;;;;;8.70;73.93;98877.88;1707051;83;21014;-74
2022/04/21 12:12:43;;;;;;;9.50;7.42;;;;;;;8.74;73.92;98887.06;1705716;84;21093;-72
2022/04/21 12:15:11;;;;;;;11.83;8.68;;;;;;;8.76;73.82;98886.19;1706073;84;21077;-73
2022/04/21 12:17:44;;;;;;;9.43;7.58;;;;;;;8.79;73.70;98886.09;1718267;82;21120;-74
2022/04/21 12:20:14;;;;;;;12.68;6.92;;;;;;;8.78;73.40;98889.42;1708611;83;21050;-73
2022/04/21 12:22:41;;;;;;;13.93;6.53;;;;;;;8.74;73.28;98892.56;1706287;84;21266;-73
2022/04/21 12:25:14;;;;;;;11.00;6.80;;;;;;;8.71;73.34;98891.28;1659937;84;21063;-73
2022/04/21 12:27:44;;;;;;;9.88;7.10;;;;;;;8.73;73.39;98894.52;1706746;82;22113;-73
2022/04/21 12:30:17;;;;;;;9.25;6.42;;;;;;;8.79;73.46;98890.21;1706301;82;21073;-72
2022/04/21 12:32:56;;;;;;;13.83;8.10;;;;;;;8.87;73.58;98885.30;1703718;82;21559;-75
2022/04/21 12:35:49;;;;;;;10.95;7.40;;;;;;;8.98;73.27;98888.52;1710038;83;21261;-76
2022/04/21 12:41:09;;;;;;;9.53;5.15;;;;;;;9.05;72.72;98890.21;1649160;87;21087;-73
2022/04/21 12:43:39;;;;;;;7.28;4.95;;;;;;;9.09;72.46;98894.49;1641095;85;21092;-73
2022/04/21 12:46:06;;;;;;;6.90;4.30;;;;;;;9.10;72.19;98896.92;1650297;87;21108;-74
2022/04/21 12:48:36;;;;;;;5.50;4.60;;;;;;;9.12;71.86;98902.09;1657762;86;20989;-75